createdAt,value
2023-03-30T00:01:33.616Z,8.80
2023-03-30T00:04:03.732Z,8.80
2023-03-30T00:06:34.304Z,8.80
2023-03-30T00:09:06.260Z,8.80
2023-03-30T00:11:38.782Z,8.80
2023-03-30T00:14:08.940Z,8.90
2023-03-30T00:16:38.923Z,8.80
2023-03-30T00:19:08.924Z,8.90
2023-03-30T00:21:38.853Z,8.80
2023-03-30T00:24:09.201Z,8.80
2023-03-30T00:26:42.043Z,8.70
2023-03-30T00:29:12.066Z,8.80
2023-03-30T00:31:42.494Z,8.80
2023-03-30T00:34:12.529Z,8.80
2023-03-30T00:36:42.567Z,9.10
2023-03-30T00:39:12.752Z,8.80
2023-03-30T00:41:46.547Z,8.90
2023-03-30T00:44:46.852Z,9.00
2023-03-30T00:47:17.194Z,9.00
2023-03-30T00:49:47.803Z,8.90
2023-03-30T00:52:19.471Z,9.00
2023-03-30T00:54:50.254Z,9.00
2023-03-30T00:57:25.783Z,9.00
2023-03-30T00:59:58.136Z,9.00
2023-03-30T01:02:28.634Z,9.00
2023-03-30T01:05:00.336Z,9.00
2023-03-30T01:07:31.746Z,7.90
2023-03-30T01:10:02.655Z,9.00
2023-03-30T01:12:35.636Z,9.00
2023-03-30T01:15:07.504Z,9.00
2023-03-30T01:17:47.671Z,9.00
2023-03-30T01:20:44.498Z,9.10
2023-03-30T01:24:16.103Z,9.00
2023-03-30T01:26:54.225Z,9.30
2023-03-30T01:29:45.454Z,9.00
2023-03-30T01:32:58.327Z,9.00
2023-03-30T01:35:59.723Z,8.90
2023-03-30T01:38:46.541Z,8.80
2023-03-30T01:41:26.793Z,8.80
2023-03-30T01:44:04.796Z,8.80
2023-03-30T01:46:40.423Z,8.80
2023-03-30T01:49:18.089Z,8.80
2023-03-30T01:51:56.552Z,8.90
2023-03-30T01:54:30.884Z,8.90
2023-03-30T01:57:09.622Z,8.80
2023-03-30T01:59:45.752Z,8.90
2023-03-30T02:02:18.134Z,8.90
2023-03-30T02:04:53.872Z,8.90
2023-03-30T02:07:27.821Z,8.90
2023-03-30T02:10:04.197Z,9.00
2023-03-30T02:12:41.342Z,9.00
2023-03-30T02:15:14.494Z,9.00
2023-03-30T02:17:47.705Z,9.00
2023-03-30T02:20:19.225Z,9.00
2023-03-30T02:22:50.369Z,9.00
2023-03-30T02:25:20.737Z,9.00
2023-03-30T02:27:53.585Z,9.00
2023-03-30T02:30:23.741Z,9.10
2023-03-30T02:32:57.847Z,9.00
2023-03-30T02:35:48.713Z,8.90
2023-03-30T02:38:37.262Z,8.80
2023-03-30T02:41:17.365Z,8.70
2023-03-30T02:44:02.429Z,8.60
2023-03-30T02:46:56.266Z,8.50
2023-03-30T02:49:31.687Z,8.40
2023-03-30T02:52:10.742Z,8.30
2023-03-30T02:55:02.884Z,8.30
2023-03-30T02:57:54.571Z,8.30
2023-03-30T03:00:56.245Z,8.30
2023-03-30T03:03:38.306Z,8.20
2023-03-30T03:06:10.255Z,8.20
2023-03-30T03:08:48.264Z,8.20
2023-03-30T03:11:24.399Z,8.20
2023-03-30T03:13:55.772Z,8.20
2023-03-30T03:16:29.402Z,8.10
2023-03-30T03:19:17.752Z,8.10
2023-03-30T03:21:51.843Z,8.10
2023-03-30T03:24:22.024Z,8.10
2023-03-30T03:27:20.693Z,8.10
2023-03-30T03:30:04.124Z,8.10
2023-03-30T03:32:42.051Z,8.10
2023-03-30T03:35:12.512Z,8.10
2023-03-30T03:37:42.648Z,8.10
2023-03-30T03:40:14.843Z,8.00
2023-03-30T03:42:45.193Z,8.10
2023-03-30T03:45:17.396Z,8.10
2023-03-30T03:48:02.656Z,8.10
2023-03-30T03:50:45.792Z,8.20
2023-03-30T03:53:16.353Z,8.30
2023-03-30T03:55:47.313Z,8.30
2023-03-30T03:58:18.427Z,8.40
2023-03-30T04:00:48.514Z,8.40
2023-03-30T04:03:22.005Z,8.50
2023-03-30T04:05:52.002Z,8.40
2023-03-30T04:08:22.131Z,8.30
2023-03-30T04:10:52.243Z,8.30
2023-03-30T04:13:36.242Z,8.30
2023-03-30T04:16:35.213Z,8.30
2023-03-30T04:19:25.478Z,8.30
2023-03-30T04:22:20.292Z,8.30
2023-03-30T04:25:15.901Z,8.40
2023-03-30T04:28:01.005Z,8.40
2023-03-30T04:30:45.937Z,8.30
2023-03-30T04:33:51.956Z,8.30
2023-03-30T04:36:48.064Z,8.80
2023-03-30T04:39:50.350Z,8.60
2023-03-30T04:42:37.996Z,8.70
2023-03-30T04:45:22.940Z,8.80
2023-03-30T04:48:31.503Z,8.90
2023-03-30T04:51:11.993Z,8.90
2023-03-30T04:54:22.950Z,8.90
2023-03-30T04:57:14.153Z,9.00
2023-03-30T04:59:48.039Z,9.00
2023-03-30T05:02:37.151Z,9.10
2023-03-30T05:05:30.939Z,9.20
2023-03-30T05:08:19.168Z,9.30
2023-03-30T05:11:14.247Z,9.20
2023-03-30T05:14:14.688Z,9.10
2023-03-30T05:17:19.740Z,9.10
2023-03-30T05:20:22.127Z,9.10
2023-03-30T05:23:14.928Z,9.10
2023-03-30T05:26:05.211Z,9.10
2023-03-30T05:28:56.927Z,9.00
2023-03-30T05:31:58.763Z,9.00
2023-03-30T05:34:51.620Z,9.00
2023-03-30T05:37:38.694Z,9.00
2023-03-30T05:40:31.345Z,9.00
2023-03-30T05:43:12.661Z,8.90
2023-03-30T05:45:47.830Z,8.90
2023-03-30T05:48:56.172Z,8.90
2023-03-30T05:51:55.182Z,9.00
2023-03-30T05:54:37.856Z,9.00
2023-03-30T05:57:14.515Z,9.10
2023-03-30T05:59:57.661Z,9.20
2023-03-30T06:02:50.115Z,9.20
2023-03-30T06:05:23.181Z,9.50
2023-03-30T06:07:53.481Z,11.50
2023-03-30T06:10:24.250Z,9.30
2023-03-30T06:12:54.318Z,9.30
2023-03-30T06:15:33.878Z,9.30
2023-03-30T06:18:12.857Z,9.40
2023-03-30T06:20:50.690Z,9.40
2023-03-30T06:23:23.122Z,9.30
2023-03-30T06:25:55.964Z,9.30
2023-03-30T06:28:31.991Z,9.30
2023-03-30T06:31:03.290Z,9.30
2023-03-30T06:33:39.638Z,9.30
2023-03-30T06:36:14.630Z,9.20
2023-03-30T06:38:46.717Z,9.20
2023-03-30T06:41:19.276Z,9.10
2023-03-30T06:43:51.684Z,9.20
2023-03-30T06:46:23.673Z,9.20
2023-03-30T06:48:57.855Z,8.80
2023-03-30T06:51:47.268Z,9.20
2023-03-30T06:54:20.336Z,9.30
2023-03-30T06:56:57.259Z,9.30
2023-03-30T06:59:27.405Z,9.30
2023-03-30T07:02:20.763Z,9.30
2023-03-30T07:05:15.875Z,9.30
2023-03-30T07:08:01.449Z,9.30
2023-03-30T07:10:32.023Z,9.30
2023-03-30T07:13:04.848Z,9.30
2023-03-30T07:15:35.998Z,9.30
2023-03-30T07:18:06.369Z,9.40
2023-03-30T07:20:39.118Z,9.50
2023-03-30T07:23:17.348Z,9.50
2023-03-30T07:25:48.923Z,9.50
2023-03-30T07:28:23.357Z,9.50
2023-03-30T07:30:53.604Z,9.60
2023-03-30T07:33:25.005Z,9.60
2023-03-30T07:35:58.096Z,9.60
2023-03-30T07:38:29.250Z,9.60
2023-03-30T07:40:59.303Z,9.60
2023-03-30T07:43:30.148Z,9.60
2023-03-30T07:46:00.831Z,9.60
2023-03-30T07:48:36.987Z,9.60
2023-03-30T07:51:12.350Z,9.60
2023-03-30T07:53:51.549Z,9.70
2023-03-30T07:56:27.917Z,9.70
2023-03-30T07:59:01.636Z,9.70
2023-03-30T08:01:35.768Z,9.70
2023-03-30T08:04:16.056Z,9.70
2023-03-30T08:06:49.315Z,9.40
2023-03-30T08:09:19.542Z,9.70
2023-03-30T08:14:20.641Z,9.70
2023-03-30T08:16:50.928Z,9.20
2023-03-30T08:19:21.089Z,9.60
2023-03-30T08:21:53.792Z,9.60
2023-03-30T08:24:24.064Z,9.60
2023-03-30T08:26:54.060Z,9.80
2023-03-30T08:29:24.390Z,9.60
2023-03-30T08:31:54.902Z,9.60
2023-03-30T08:34:24.940Z,9.60
2023-03-30T08:36:58.328Z,9.50
2023-03-30T08:39:29.930Z,9.70
2023-03-30T08:42:12.893Z,9.60
2023-03-30T08:44:45.335Z,9.60
2023-03-30T08:47:17.103Z,9.60
2023-03-30T08:49:54.394Z,9.60
2023-03-30T08:52:28.428Z,9.60
2023-03-30T08:54:58.406Z,9.70
2023-03-30T08:57:41.021Z,9.70
2023-03-30T09:00:21.430Z,9.70
2023-03-30T09:02:56.019Z,9.70
2023-03-30T09:05:31.947Z,9.80
2023-03-30T09:08:09.918Z,9.80
2023-03-30T09:10:44.186Z,9.70
2023-03-30T09:13:18.829Z,9.70
2023-03-30T09:15:54.895Z,9.60
2023-03-30T09:18:29.318Z,9.80
2023-03-30T09:21:03.322Z,9.80
2023-03-30T09:23:37.132Z,9.80
2023-03-30T09:26:14.882Z,9.90
2023-03-30T09:28:51.002Z,9.90
2023-03-30T09:31:25.377Z,9.90
2023-03-30T09:34:03.642Z,9.80
2023-03-30T09:36:40.329Z,9.90
2023-03-30T09:39:20.791Z,9.90
2023-03-30T09:41:59.728Z,10.00
2023-03-30T09:44:36.254Z,10.00
2023-03-30T09:47:22.208Z,10.00
2023-03-30T09:49:57.716Z,10.00
2023-03-30T09:52:29.719Z,10.00
2023-03-30T09:55:19.686Z,10.00
2023-03-30T09:57:51.046Z,10.10
2023-03-30T10:00:31.471Z,10.10
2023-03-30T10:03:03.013Z,10.10
2023-03-30T10:05:34.870Z,10.10
2023-03-30T10:08:07.577Z,10.20
2023-03-30T10:10:41.742Z,10.30
2023-03-30T10:13:16.871Z,10.30
2023-03-30T10:15:51.230Z,10.40
2023-03-30T10:18:29.811Z,10.50
2023-03-30T10:21:05.752Z,10.60
2023-03-30T10:23:40.249Z,10.50
2023-03-30T10:26:16.154Z,10.50
2023-03-30T10:28:55.837Z,10.60
2023-03-30T10:31:28.267Z,10.60
2023-03-30T10:34:01.364Z,10.70
2023-03-30T10:36:35.315Z,10.70
2023-03-30T10:39:11.345Z,10.80
2023-03-30T10:41:45.344Z,10.80
2023-03-30T10:44:28.859Z,10.90
2023-03-30T10:47:20.630Z,11.10
2023-03-30T10:49:59.070Z,11.00
2023-03-30T10:52:41.038Z,11.00
2023-03-30T10:55:24.006Z,11.10
2023-03-30T10:58:05.210Z,11.00
2023-03-30T11:00:48.420Z,11.10
2023-03-30T11:03:23.756Z,11.10
2023-03-30T11:06:00.267Z,11.10
2023-03-30T11:08:34.164Z,11.20
2023-03-30T11:11:04.533Z,11.30
2023-03-30T11:13:40.903Z,11.40
2023-03-30T11:16:16.510Z,11.40
2023-03-30T11:18:56.282Z,11.50
2023-03-30T11:21:33.931Z,11.60
2023-03-30T11:24:09.936Z,11.70
2023-03-30T11:26:43.538Z,11.80
2023-03-30T11:29:29.173Z,11.80
2023-03-30T11:32:10.715Z,11.80
2023-03-30T11:34:57.593Z,11.90
2023-03-30T11:37:33.916Z,11.90
2023-03-30T11:40:13.234Z,11.90
2023-03-30T11:42:43.418Z,11.80
2023-03-30T11:45:43.687Z,11.80
2023-03-30T11:48:50.835Z,11.70
2023-03-30T11:51:39.537Z,11.70
2023-03-30T11:54:35.453Z,11.80
2023-03-30T11:57:14.309Z,12.10
2023-03-30T11:59:57.418Z,12.20
2023-03-30T12:02:39.037Z,12.10
2023-03-30T12:05:14.181Z,11.90
2023-03-30T12:07:55.279Z,11.90
2023-03-30T12:10:31.285Z,11.90
2023-03-30T12:13:02.053Z,11.90
2023-03-30T12:15:43.188Z,11.90
2023-03-30T12:18:28.084Z,11.90
2023-03-30T12:21:08.139Z,11.90
2023-03-30T12:23:44.224Z,11.80
2023-03-30T12:26:27.247Z,11.90
2023-03-30T12:29:26.337Z,12.10
2023-03-30T12:32:06.678Z,12.10
2023-03-30T12:34:40.923Z,12.10
2023-03-30T12:37:14.675Z,12.30
2023-03-30T12:39:49.477Z,12.50
2023-03-30T12:42:34.534Z,12.50
2023-03-30T12:45:27.929Z,12.80
2023-03-30T12:48:20.265Z,13.30
2023-03-30T12:51:03.582Z,13.80
2023-03-30T12:53:54.827Z,14.20
2023-03-30T12:56:34.345Z,14.50
2023-03-30T12:59:21.849Z,14.20
2023-03-30T13:02:20.890Z,14.00
2023-03-30T13:04:51.405Z,13.30
2023-03-30T13:07:26.561Z,13.40
2023-03-30T13:10:00.516Z,13.30
2023-03-30T13:12:38.157Z,13.50
2023-03-30T13:15:33.798Z,13.40
2023-03-30T13:18:05.803Z,13.40
2023-03-30T13:20:37.674Z,13.20
2023-03-30T13:23:34.421Z,13.50
2023-03-30T13:26:08.323Z,13.30
2023-03-30T13:28:49.300Z,13.10
2023-03-30T13:31:40.303Z,12.80
2023-03-30T13:34:22.047Z,13.40
2023-03-30T13:37:00.220Z,13.60
2023-03-30T13:39:41.149Z,13.20
2023-03-30T13:42:33.230Z,13.70
2023-03-30T13:45:09.851Z,15.10
2023-03-30T13:48:00.616Z,14.50
2023-03-30T13:50:32.844Z,14.90
2023-03-30T13:53:05.803Z,14.80
2023-03-30T13:55:41.692Z,14.10
2023-03-30T13:58:17.512Z,14.20
2023-03-30T14:00:51.746Z,13.80
2023-03-30T14:03:42.280Z,14.20
2023-03-30T14:06:21.247Z,14.90
2023-03-30T14:08:53.673Z,14.10
2023-03-30T14:11:29.944Z,15.10
2023-03-30T14:14:00.709Z,14.60
2023-03-30T14:16:35.182Z,14.10
2023-03-30T14:19:15.078Z,14.30
2023-03-30T14:21:47.250Z,14.30
2023-03-30T14:24:20.165Z,14.20
2023-03-30T14:26:54.679Z,15.20
2023-03-30T14:29:31.067Z,14.30
2023-03-30T14:32:08.570Z,15.00
2023-03-30T14:34:40.143Z,14.80
2023-03-30T14:37:13.367Z,14.80
2023-03-30T14:39:46.286Z,14.80
2023-03-30T14:42:22.632Z,15.30
2023-03-30T14:44:55.397Z,15.40
2023-03-30T14:47:28.756Z,15.50
2023-03-30T14:50:00.998Z,15.40
2023-03-30T14:52:36.958Z,15.40
2023-03-30T14:55:12.066Z,15.30
2023-03-30T14:57:48.119Z,14.50
2023-03-30T15:00:21.341Z,14.20
2023-03-30T15:02:54.601Z,14.50
2023-03-30T15:05:27.178Z,14.40
2023-03-30T15:07:57.600Z,14.40
2023-03-30T15:10:29.926Z,13.90
2023-03-30T15:13:04.418Z,14.10
2023-03-30T15:15:35.968Z,14.00
2023-03-30T15:18:07.216Z,13.60
2023-03-30T15:20:37.254Z,13.50
2023-03-30T15:23:07.475Z,13.30
2023-03-30T15:25:38.648Z,13.90
2023-03-30T15:28:14.585Z,13.00
2023-03-30T15:30:46.235Z,13.20
2023-03-30T15:33:24.635Z,13.50
2023-03-30T15:35:56.139Z,13.10
2023-03-30T15:38:34.296Z,12.80
2023-03-30T15:41:04.691Z,12.50
2023-03-30T15:43:40.921Z,12.20
2023-03-30T15:46:15.994Z,12.70
2023-03-30T15:48:48.803Z,12.60
2023-03-30T15:51:23.545Z,12.40
2023-03-30T15:53:56.253Z,12.90
2023-03-30T15:56:29.961Z,12.80
2023-03-30T15:59:03.069Z,12.70
2023-03-30T16:01:45.515Z,12.40
2023-03-30T16:04:18.099Z,12.80
2023-03-30T16:06:48.383Z,12.30
2023-03-30T16:09:18.770Z,13.10
2023-03-30T16:11:49.374Z,13.10
2023-03-30T16:14:23.968Z,12.90
2023-03-30T16:16:53.990Z,13.90
2023-03-30T16:19:23.937Z,13.20
2023-03-30T16:21:53.861Z,13.10
2023-03-30T16:24:23.857Z,13.60
2023-03-30T16:26:53.801Z,13.10
2023-03-30T16:29:27.861Z,13.40
2023-03-30T16:31:57.914Z,13.20
2023-03-30T16:34:28.517Z,13.20
2023-03-30T16:36:58.532Z,13.40
2023-03-30T16:39:30.040Z,12.90
2023-03-30T16:42:00.831Z,12.90
2023-03-30T16:44:33.522Z,12.70
2023-03-30T16:47:03.548Z,13.10
2023-03-30T16:49:33.497Z,12.40
2023-03-30T16:52:03.477Z,12.50
2023-03-30T16:54:33.482Z,12.70
2023-03-30T16:57:04.225Z,12.70
2023-03-30T16:59:36.835Z,12.70
2023-03-30T17:02:06.830Z,12.60
2023-03-30T17:04:36.903Z,12.10
2023-03-30T17:09:37.313Z,12.40
2023-03-30T17:12:07.574Z,12.40
2023-03-30T17:14:43.021Z,12.00
2023-03-30T17:17:13.207Z,12.30
2023-03-30T17:22:13.512Z,12.50
2023-03-30T17:24:43.935Z,12.50
2023-03-30T17:27:14.105Z,12.00
2023-03-30T17:29:46.746Z,10.80
2023-03-30T17:37:17.602Z,9.30
2023-03-30T17:42:18.045Z,8.70
2023-03-30T17:44:50.694Z,8.90
2023-03-30T17:57:23.105Z,8.60
2023-03-30T17:59:55.896Z,8.70
2023-03-30T18:04:56.633Z,8.90
2023-03-30T18:15:00.562Z,8.40
2023-03-30T18:17:30.659Z,8.50
2023-03-30T18:20:01.649Z,8.70
2023-03-30T18:25:02.353Z,8.20
2023-03-30T18:27:35.278Z,8.20
2023-03-30T18:30:21.504Z,8.50
2023-03-30T18:32:52.114Z,8.20
2023-03-30T18:35:23.437Z,8.00
2023-03-30T18:37:54.612Z,8.00
2023-03-30T18:40:27.477Z,7.90
2023-03-30T18:42:57.980Z,7.80
2023-03-30T18:45:32.226Z,8.00
2023-03-30T18:48:02.529Z,7.70
2023-03-30T18:50:36.921Z,7.70
2023-03-30T18:53:09.462Z,7.70
2023-03-30T18:55:41.883Z,7.80
2023-03-30T18:58:18.429Z,7.50
2023-03-30T19:00:52.146Z,7.70
2023-03-30T19:03:23.464Z,7.70
2023-03-30T19:05:54.064Z,7.90
2023-03-30T19:08:26.879Z,7.50
2023-03-30T19:10:58.191Z,7.50
2023-03-30T19:13:29.713Z,7.50
2023-03-30T19:16:06.208Z,7.50
2023-03-30T19:21:07.133Z,7.20
2023-03-30T19:23:37.311Z,7.50
2023-03-30T19:28:38.075Z,7.70
2023-03-30T19:31:15.839Z,7.10
2023-03-30T19:33:46.249Z,6.50
2023-03-30T19:36:16.424Z,7.40
2023-03-30T19:38:46.627Z,6.80
2023-03-30T19:46:22.975Z,6.90
2023-03-30T19:48:53.103Z,6.90
2023-03-30T19:56:25.151Z,6.70
2023-03-30T20:01:28.155Z,6.90
2023-03-30T20:03:59.560Z,6.70
2023-03-30T20:06:30.104Z,7.20
2023-03-30T20:16:35.244Z,7.20
2023-03-30T20:19:15.899Z,7.20
2023-03-30T20:21:52.246Z,6.80
2023-03-30T20:26:52.616Z,7.60
2023-03-30T20:29:22.671Z,7.00
2023-03-30T20:31:55.351Z,7.20
2023-03-30T20:39:29.497Z,7.60
2023-03-30T20:42:02.116Z,7.40
2023-03-30T20:44:35.489Z,7.40
2023-03-30T20:47:09.779Z,7.70
2023-03-30T20:49:41.978Z,7.70
2023-03-30T20:52:12.742Z,7.70
2023-03-30T20:59:48.076Z,8.00
2023-03-30T21:02:21.175Z,7.90
2023-03-30T21:04:53.161Z,7.40
2023-03-30T21:07:24.783Z,7.90
2023-03-30T21:09:54.970Z,7.60
2023-03-30T21:12:25.042Z,7.60
2023-03-30T21:17:28.204Z,8.10
2023-03-30T21:19:58.291Z,7.80
2023-03-30T21:32:33.817Z,7.70
2023-03-30T21:35:04.012Z,7.70
2023-03-30T21:42:36.751Z,7.90
2023-03-30T21:47:40.282Z,7.90
2023-03-30T21:50:11.258Z,7.90
2023-03-30T21:55:12.259Z,7.80
2023-03-30T22:00:14.356Z,7.80
2023-03-30T22:02:47.631Z,7.70
2023-03-30T22:17:54.531Z,8.10
2023-03-30T22:20:24.948Z,7.60
2023-03-30T22:48:09.706Z,7.80
2023-03-30T23:03:16.042Z,7.60
2023-03-30T23:18:21.769Z,7.40
2023-03-30T23:23:24.385Z,6.90
2023-03-30T23:25:55.101Z,7.20
2023-03-30T23:58:43.995Z,6.50
